Time;durP1;ratioP1;P1;durP2;ratioP2;P2;SDS_P1;SDS_P2;PMS_P1;PMS_P2;Temp;Humidity;BMP_temperature;BMP_pressure;BME280_temperature;BME280_humidity;BME280_pressure;Samples;Min_cycle;Max_cycle;Signal;HPM_P1;HPM_P2
2022/09/14 00:01:19;;;;;;;7.05;4.60;;;;;;;14.78;54.47;95391.41;5009088;28;20033;-79
2022/09/14 00:03:44;;;;;;;6.15;5.00;;;;;;;14.78;54.82;95394.91;5011326;28;20047;-79
2022/09/14 00:06:11;;;;;;;7.55;4.05;;;;;;;14.82;54.70;95393.53;5025444;28;20025;-79
2022/09/14 00:08:37;;;;;;;6.07;4.18;;;;;;;14.85;54.19;95397.66;5025749;28;20481;-79
2022/09/14 00:11:10;;;;;;;8.88;4.50;;;;;;;14.83;54.33;95399.75;5009091;28;20037;-79
2022/09/14 00:13:36;;;;;;;5.07;4.53;;;;;;;14.82;54.18;95398.09;5009586;28;20108;-79
2022/09/14 00:16:03;;;;;;;6.65;4.68;;;;;;;14.74;54.17;95406.34;5009631;28;20105;-79
2022/09/14 00:18:28;;;;;;;4.90;4.38;;;;;;;14.66;54.70;95410.91;5008937;28;20056;-79
2022/09/14 00:21:01;;;;;;;5.43;4.00;;;;;;;14.67;54.99;95395.53;5027094;28;20030;-79
2022/09/14 00:23:27;;;;;;;5.97;4.68;;;;;;;14.74;54.88;95403.63;5025480;28;20036;-80
2022/09/14 00:25:52;;;;;;;4.60;4.05;;;;;;;14.61;55.08;95397.16;5025589;28;20025;-78
2022/09/14 00:28:18;;;;;;;5.25;3.50;;;;;;;14.61;55.13;95399.03;5025461;28;20056;-79
2022/09/14 00:30:43;;;;;;;5.72;4.40;;;;;;;14.61;55.39;95396.34;5008423;28;20036;-79
2022/09/14 00:33:08;;;;;;;5.30;4.32;;;;;;;14.59;55.38;95400.06;5026990;28;20018;-78
2022/09/14 00:35:34;;;;;;;4.47;3.95;;;;;;;14.57;55.25;95401.31;5024775;28;20029;-79
2022/09/14 00:38:00;;;;;;;5.13;4.07;;;;;;;14.50;55.43;95403.16;5026715;28;20405;-78
2022/09/14 00:40:25;;;;;;;4.65;4.13;;;;;;;14.48;55.59;95405.25;5026766;28;20091;-78
2022/09/14 00:42:51;;;;;;;8.57;3.97;;;;;;;14.43;56.01;95409.38;5025194;28;20060;-78
2022/09/14 00:45:20;;;;;;;7.03;4.38;;;;;;;14.51;55.56;95407.53;5008305;28;20029;-78
2022/09/14 00:47:49;;;;;;;5.80;4.15;;;;;;;14.36;56.27;95410.38;5008940;28;20017;-78
2022/09/14 00:50:15;;;;;;;5.07;4.38;;;;;;;14.36;56.37;95405.81;5008848;28;20094;-78
2022/09/14 00:52:41;;;;;;;4.82;4.18;;;;;;;14.31;56.40;95416.38;5008234;28;20022;-78
2022/09/14 00:55:09;;;;;;;9.10;4.65;;;;;;;14.15;56.75;95422.94;5008757;28;20037;-78
2022/09/14 00:57:41;;;;;;;5.82;4.30;;;;;;;14.00;56.95;95418.50;5008570;28;20108;-78
2022/09/14 01:00:08;;;;;;;6.90;4.63;;;;;;;13.90;57.36;95418.03;5008505;28;20095;-78
2022/09/14 01:02:34;;;;;;;5.97;4.50;;;;;;;13.93;57.73;95431.09;5008367;28;20029;-78
2022/09/14 01:04:59;;;;;;;6.00;4.72;;;;;;;13.96;57.24;95422.66;5008526;28;20028;-78
2022/09/14 01:07:34;;;;;;;5.40;4.65;;;;;;;14.04;57.38;95425.16;5008331;28;20034;-78
2022/09/14 01:10:02;;;;;;;5.65;4.68;;;;;;;14.05;57.31;95420.59;5024040;28;20080;-77
2022/09/14 01:12:46;;;;;;;5.82;5.00;;;;;;;14.02;57.69;95427.25;5008626;28;20748;-77
2022/09/14 01:15:34;;;;;;;6.13;5.07;;;;;;;13.93;57.79;95423.03;5025892;28;20025;-77
2022/09/14 01:18:08;;;;;;;12.75;5.25;;;;;;;13.88;57.93;95425.50;5024532;28;20435;-78
2022/09/14 01:20:39;;;;;;;7.18;5.45;;;;;;;13.88;57.45;95417.41;5024623;28;20140;-78
2022/09/14 01:23:35;;;;;;;5.95;5.35;;;;;;;13.86;57.40;95422.16;5006931;28;20030;-78
2022/09/14 01:26:25;;;;;;;6.93;5.18;;;;;;;13.77;57.41;95418.78;5024773;28;20511;-78
2022/09/14 01:28:57;;;;;;;6.25;4.80;;;;;;;13.71;58.07;95413.16;5007852;28;20042;-79
2022/09/14 01:31:30;;;;;;;7.05;5.50;;;;;;;13.63;58.62;95410.63;5025987;28;20064;-79
2022/09/14 01:34:04;;;;;;;6.78;5.28;;;;;;;13.66;57.92;95415.63;5008779;28;20091;-79
2022/09/14 01:36:30;;;;;;;6.03;5.03;;;;;;;13.66;58.37;95418.31;5025222;28;20022;-79
2022/09/14 01:38:55;;;;;;;6.43;5.45;;;;;;;13.60;58.10;95419.09;4991826;28;20098;-79
2022/09/14 01:41:22;;;;;;;6.68;5.45;;;;;;;13.57;58.08;95419.50;5007279;28;20067;-79
2022/09/14 01:43:54;;;;;;;7.03;6.15;;;;;;;13.51;59.20;95422.97;5024288;28;20037;-79
2022/09/14 01:46:25;;;;;;;6.57;5.78;;;;;;;13.45;58.64;95428.06;5007682;28;20121;-79
2022/09/14 01:49:07;;;;;;;6.82;6.13;;;;;;;13.42;58.98;95425.78;5007574;28;20485;-79
2022/09/14 01:51:38;;;;;;;8.18;6.47;;;;;;;13.31;59.69;95424.44;5009400;28;20105;-79
2022/09/14 01:54:12;;;;;;;7.38;6.50;;;;;;;13.32;59.74;95422.56;5007935;28;20029;-78
2022/09/14 01:57:09;;;;;;;8.27;6.03;;;;;;;13.38;59.29;95426.38;5008675;28;20488;-78
2022/09/14 01:59:37;;;;;;;9.77;6.00;;;;;;;13.36;59.08;95418.47;5026157;28;20474;-79
2022/09/14 02:02:09;;;;;;;9.77;6.28;;;;;;;13.34;59.46;95420.53;5007371;28;20044;-78
2022/09/14 02:04:44;;;;;;;6.97;6.13;;;;;;;13.30;59.90;95419.25;5024565;28;20028;-79
2022/09/14 02:07:09;;;;;;;7.35;6.07;;;;;;;13.32;59.30;95414.50;5023572;28;20036;-79
2022/09/14 02:09:35;;;;;;;12.82;6.60;;;;;;;13.30;59.48;95409.31;4991283;28;20029;-79
2022/09/14 02:12:00;;;;;;;10.35;6.72;;;;;;;13.31;59.75;95423.59;5023867;28;20393;-79
2022/09/14 02:14:26;;;;;;;7.18;5.95;;;;;;;13.25;59.24;95410.94;5008192;28;20031;-79
2022/09/14 02:16:52;;;;;;;7.55;6.03;;;;;;;13.25;59.21;95417.13;5008951;28;20018;-79
2022/09/14 02:19:17;;;;;;;7.65;6.43;;;;;;;13.22;60.06;95423.75;5023881;28;20579;-79
2022/09/14 02:21:43;;;;;;;8.73;5.65;;;;;;;13.22;59.15;95422.91;5008200;28;20032;-78
2022/09/14 02:24:08;;;;;;;7.05;5.35;;;;;;;13.14;59.15;95415.78;5023784;28;20064;-79
2022/09/14 02:26:34;;;;;;;7.88;6.10;;;;;;;13.13;59.58;95416.84;5007339;28;20416;-79
2022/09/14 02:28:59;;;;;;;8.65;6.15;;;;;;;13.14;58.73;95418.47;5007509;28;20029;-78
2022/09/14 02:31:46;;;;;;;8.93;6.00;;;;;;;13.11;58.79;95435.03;5007307;28;20025;-79
2022/09/14 02:34:17;;;;;;;8.05;5.95;;;;;;;13.06;58.95;95429.38;5025845;28;20388;-79
2022/09/14 02:37:12;;;;;;;8.32;5.70;;;;;;;12.97;59.36;95413.38;5028771;28;20033;-79
2022/09/14 02:40:00;;;;;;;10.90;6.03;;;;;;;13.03;59.16;95435.16;4997512;28;20373;-79
2022/09/14 02:42:53;;;;;;;8.38;6.15;;;;;;;13.01;59.64;95434.53;5029195;28;20071;-79
2022/09/14 02:45:29;;;;;;;7.53;6.45;;;;;;;12.96;59.47;95435.94;5028279;28;20515;-77
2022/09/14 02:48:17;;;;;;;8.82;6.18;;;;;;;12.93;59.09;95430.94;5012001;28;20059;-78
2022/09/14 02:51:14;;;;;;;9.05;6.57;;;;;;;12.89;59.31;95424.28;5028824;28;20033;-78
2022/09/14 02:53:59;;;;;;;7.93;5.82;;;;;;;12.90;59.43;95427.78;5023476;28;20084;-79
2022/09/14 02:56:25;;;;;;;7.85;6.32;;;;;;;12.88;59.55;95427.97;5027830;28;20025;-78
2022/09/14 02:58:51;;;;;;;7.57;5.85;;;;;;;12.80;60.04;95431.63;5027394;28;20051;-78
2022/09/14 03:01:18;;;;;;;6.13;5.53;;;;;;;12.81;60.14;95437.84;5029023;28;20029;-78
2022/09/14 03:03:43;;;;;;;8.55;7.00;;;;;;;12.72;60.59;95440.66;4994248;28;20102;-78
2022/09/14 03:06:08;;;;;;;8.98;6.28;;;;;;;12.68;60.45;95433.16;5028676;28;20459;-78
2022/09/14 03:08:34;;;;;;;11.43;7.43;;;;;;;12.65;60.99;95429.00;5028329;28;20456;-78
2022/09/14 03:10:59;;;;;;;7.93;6.68;;;;;;;12.67;61.17;95435.00;5027333;28;20029;-78
2022/09/14 03:13:25;;;;;;;13.20;6.25;;;;;;;12.66;60.56;95429.81;5028960;28;20040;-79
2022/09/14 03:15:51;;;;;;;7.53;6.35;;;;;;;12.62;60.71;95429.38;5027808;28;20088;-78
2022/09/14 03:18:16;;;;;;;8.63;6.28;;;;;;;12.56;60.80;95427.44;5027325;28;20057;-78
2022/09/14 03:20:42;;;;;;;9.27;6.60;;;;;;;12.48;61.02;95423.00;5027378;28;20048;-78
2022/09/14 03:23:10;;;;;;;10.75;7.13;;;;;;;12.49;60.85;95425.50;5028608;28;20075;-78
2022/09/14 03:25:37;;;;;;;8.93;6.50;;;;;;;12.47;61.03;95429.41;5026869;28;20029;-78
2022/09/14 03:28:03;;;;;;;7.72;6.80;;;;;;;12.50;60.94;95426.34;5011215;28;20409;-79
2022/09/14 03:30:28;;;;;;;10.38;7.40;;;;;;;12.49;60.95;95436.25;5010709;28;20480;-79
2022/09/14 03:32:54;;;;;;;11.15;8.05;;;;;;;12.47;61.07;95424.88;5010421;28;20773;-78
2022/09/14 03:35:19;;;;;;;9.52;7.20;;;;;;;12.44;61.34;95432.47;5028992;28;20029;-78
2022/09/14 03:37:44;;;;;;;10.38;7.28;;;;;;;12.35;61.61;95434.44;5026263;28;20033;-78
2022/09/14 03:40:12;;;;;;;7.50;6.63;;;;;;;12.40;61.19;95431.19;5027182;28;20017;-78
2022/09/14 03:42:44;;;;;;;9.63;7.35;;;;;;;12.43;61.36;95433.50;5026445;28;20037;-78
2022/09/14 03:45:11;;;;;;;8.38;7.43;;;;;;;12.40;61.25;95432.00;5026475;28;20120;-79
2022/09/14 03:47:37;;;;;;;10.27;7.72;;;;;;;12.38;61.70;95428.66;5026458;28;20040;-79
2022/09/14 03:50:02;;;;;;;10.30;7.18;;;;;;;12.43;60.44;95430.81;5026695;28;20030;-78
2022/09/14 03:52:28;;;;;;;8.15;7.07;;;;;;;12.30;60.18;95431.50;5028252;28;20029;-79
2022/09/14 03:54:53;;;;;;;8.52;6.88;;;;;;;12.31;59.79;95435.84;5026047;28;20445;-78
2022/09/14 03:57:19;;;;;;;9.98;6.57;;;;;;;12.30;59.47;95439.56;5028175;28;20397;-78
2022/09/14 03:59:44;;;;;;;9.48;6.75;;;;;;;12.26;59.90;95438.25;5027258;28;20040;-79
2022/09/14 04:02:10;;;;;;;8.73;6.55;;;;;;;12.22;60.47;95441.31;5026463;28;20029;-78
2022/09/14 04:04:35;;;;;;;16.42;7.68;;;;;;;12.16;61.06;95438.53;5025976;28;20033;-78
2022/09/14 04:07:01;;;;;;;11.30;7.70;;;;;;;12.09;61.83;95439.28;5025595;28;20357;-79
2022/09/14 04:09:26;;;;;;;9.18;7.50;;;;;;;12.17;62.05;95434.84;5026198;28;20025;-79
2022/09/14 04:11:51;;;;;;;8.43;7.47;;;;;;;12.19;61.82;95432.78;5025601;28;20025;-79
2022/09/14 04:14:17;;;;;;;11.77;7.85;;;;;;;12.20;61.38;95437.97;5030802;28;20491;-79
2022/09/14 04:16:43;;;;;;;14.35;7.57;;;;;;;12.18;61.90;95436.50;5026643;28;20532;-79
2022/09/14 04:19:12;;;;;;;10.10;7.20;;;;;;;12.20;62.07;95442.53;5025758;28;20041;-80
2022/09/14 04:21:37;;;;;;;12.52;7.47;;;;;;;12.21;61.69;95441.50;5026716;28;20033;-79
2022/09/14 04:24:03;;;;;;;20.23;8.23;;;;;;;12.27;61.75;95448.00;5009082;28;20014;-78
2022/09/14 04:26:29;;;;;;;16.15;7.80;;;;;;;12.34;61.47;95440.84;5009224;28;20107;-79
2022/09/14 04:28:55;;;;;;;13.82;7.47;;;;;;;12.31;61.48;95441.22;5009146;28;20049;-79
2022/09/14 04:31:21;;;;;;;17.05;8.45;;;;;;;12.28;62.07;95431.69;5026000;28;20470;-79
2022/09/14 04:33:49;;;;;;;9.27;7.07;;;;;;;12.17;62.74;95432.97;5026912;28;20025;-78
2022/09/14 04:36:16;;;;;;;7.82;7.03;;;;;;;12.30;62.17;95431.50;5025853;28;20589;-78
2022/09/14 04:38:42;;;;;;;11.35;6.28;;;;;;;12.37;61.82;95443.16;5008708;28;20772;-79
2022/09/14 04:41:11;;;;;;;8.52;5.50;;;;;;;12.40;61.04;95442.78;5025315;28;20026;-79
2022/09/14 04:43:37;;;;;;;12.88;5.70;;;;;;;12.31;60.87;95444.75;5026665;28;20128;-79
2022/09/14 04:46:03;;;;;;;6.65;5.55;;;;;;;12.23;61.16;95450.22;5024910;28;20480;-79
2022/09/14 04:48:35;;;;;;;12.20;6.68;;;;;;;12.20;61.21;95454.09;5008905;28;20488;-78
2022/09/14 04:51:08;;;;;;;11.98;6.60;;;;;;;12.22;61.41;95457.44;5024522;28;20555;-79
2022/09/14 04:53:35;;;;;;;14.73;6.38;;;;;;;12.32;61.41;95459.00;5008925;28;20480;-80
2022/09/14 04:56:05;;;;;;;10.82;5.80;;;;;;;12.41;60.82;95460.59;5007485;28;20032;-79
2022/09/14 04:58:30;;;;;;;28.17;6.88;;;;;;;12.61;60.35;95459.97;5008230;28;20068;-78
2022/09/14 05:01:03;;;;;;;13.18;6.05;;;;;;;12.68;59.29;95458.22;5008508;28;20033;-80
2022/09/14 05:03:28;;;;;;;9.48;6.00;;;;;;;12.81;59.74;95462.91;5008287;28;20215;-79
2022/09/14 05:05:54;;;;;;;8.77;5.53;;;;;;;12.95;59.53;95461.19;5008475;28;20052;-79
2022/09/14 05:08:19;;;;;;;7.60;5.80;;;;;;;13.11;58.72;95475.41;5025542;28;20026;-79
2022/09/14 05:10:44;;;;;;;8.82;5.78;;;;;;;13.30;58.63;95473.13;5025065;28;20068;-79
2022/09/14 05:13:10;;;;;;;9.48;5.80;;;;;;;13.39;57.71;95471.13;5024057;28;20036;-79
2022/09/14 05:15:35;;;;;;;13.63;6.45;;;;;;;13.54;57.57;95479.16;5024828;28;20071;-79
2022/09/14 05:18:02;;;;;;;12.68;6.63;;;;;;;13.68;57.53;95477.41;5026125;28;20022;-78
2022/09/14 05:20:28;;;;;;;15.35;6.25;;;;;;;13.80;57.18;95472.31;5025707;28;20479;-78
2022/09/14 05:22:53;;;;;;;14.77;6.63;;;;;;;13.86;56.91;95474.22;5024442;28;20029;-79
2022/09/14 05:25:18;;;;;;;13.38;5.85;;;;;;;13.94;56.45;95470.53;5025438;28;20026;-80
2022/09/14 05:27:44;;;;;;;10.60;6.03;;;;;;;13.86;57.47;95470.69;5024599;28;20091;-80
2022/09/14 05:30:10;;;;;;;12.30;6.60;;;;;;;13.83;57.28;95474.63;5025307;28;20347;-78
2022/09/14 05:32:35;;;;;;;23.00;7.60;;;;;;;14.01;57.59;95476.78;5024529;28;20025;-79
2022/09/14 05:35:00;;;;;;;13.32;6.82;;;;;;;14.14;56.72;95475.22;5025015;28;20022;-79
2022/09/14 05:37:26;;;;;;;19.05;6.90;;;;;;;14.29;56.63;95473.22;5023871;28;20037;-79
2022/09/14 05:39:52;;;;;;;22.20;7.53;;;;;;;14.43;56.20;95474.13;5024159;28;20346;-78
2022/09/14 05:42:17;;;;;;;15.93;7.05;;;;;;;14.53;56.24;95481.00;5007398;28;20238;-79
2022/09/14 05:44:43;;;;;;;15.30;7.22;;;;;;;14.61;55.81;95494.34;5007811;28;20034;-79
2022/09/14 05:47:10;;;;;;;11.30;6.93;;;;;;;14.72;55.69;95506.41;5025793;28;20095;-80
2022/09/14 05:49:36;;;;;;;13.10;6.43;;;;;;;14.86;56.04;95496.56;5026187;28;20032;-80
2022/09/14 05:52:01;;;;;;;20.73;6.72;;;;;;;15.00;55.68;95491.19;5007170;28;20025;-79
2022/09/14 05:54:27;;;;;;;21.52;7.25;;;;;;;15.14;56.12;95492.03;5025462;28;20041;-80
2022/09/14 05:56:52;;;;;;;19.27;6.40;;;;;;;15.17;55.52;95488.94;5024097;28;20492;-80
2022/09/14 05:59:18;;;;;;;22.95;7.55;;;;;;;15.28;55.65;95482.91;5023772;28;20018;-80
2022/09/14 06:01:43;;;;;;;20.27;8.02;;;;;;;15.43;54.48;95484.59;5024216;28;20022;-78
2022/09/14 06:04:09;;;;;;;24.50;7.10;;;;;;;15.45;54.93;95477.97;5024082;28;20041;-80
2022/09/14 06:06:34;;;;;;;14.85;7.07;;;;;;;15.63;53.36;95481.94;4991408;28;20029;-79
2022/09/14 06:09:00;;;;;;;8.18;5.97;;;;;;;15.76;53.44;95481.09;5023669;28;20052;-78
2022/09/14 06:11:27;;;;;;;10.20;6.22;;;;;;;15.57;53.53;95485.47;5007892;28;20105;-79
2022/09/14 06:13:53;;;;;;;7.63;6.35;;;;;;;15.80;53.31;95476.09;5023857;28;20032;-79
2022/09/14 06:16:19;;;;;;;10.52;6.32;;;;;;;15.86;52.95;95487.94;5007182;28;20036;-83
2022/09/14 06:18:45;;;;;;;9.30;6.20;;;;;;;15.96;52.82;95482.13;5023491;28;20050;-80
2022/09/14 06:21:15;;;;;;;7.80;6.40;;;;;;;16.15;51.95;95481.25;5023410;28;20041;-79
2022/09/14 06:23:41;;;;;;;7.60;6.00;;;;;;;16.27;52.12;95483.31;5007970;28;20487;-79
2022/09/14 06:26:07;;;;;;;9.15;7.07;;;;;;;16.42;52.39;95475.81;5023644;28;20055;-81
2022/09/14 06:28:32;;;;;;;10.43;5.68;;;;;;;16.40;52.41;95486.00;5007842;28;20038;-79
2022/09/14 06:30:58;;;;;;;10.10;5.72;;;;;;;16.47;52.96;95479.75;5007049;28;20487;-79
2022/09/14 06:33:23;;;;;;;11.10;5.68;;;;;;;16.63;52.54;95482.00;4990971;28;20037;-79
2022/09/14 06:35:56;;;;;;;9.65;5.70;;;;;;;16.80;51.61;95490.44;5006813;28;20029;-79
2022/09/14 06:38:22;;;;;;;8.13;5.55;;;;;;;16.96;50.84;95479.34;5007230;28;20100;-79
2022/09/14 06:40:55;;;;;;;7.38;5.22;;;;;;;16.95;50.60;95473.09;5024854;28;20028;-79
2022/09/14 06:43:21;;;;;;;7.32;5.32;;;;;;;17.12;50.40;95480.75;5024484;28;20025;-79
2022/09/14 06:46:00;;;;;;;8.20;5.13;;;;;;;17.28;50.32;95476.69;5023739;28;20087;-80
2022/09/14 06:48:26;;;;;;;7.10;5.47;;;;;;;17.18;50.76;95480.69;5023393;28;20026;-79
2022/09/14 06:50:52;;;;;;;9.18;4.97;;;;;;;17.17;50.75;95486.31;5023736;28;20022;-79
2022/09/14 06:53:17;;;;;;;8.57;6.30;;;;;;;17.27;50.67;95480.44;5023257;28;20031;-79
2022/09/14 06:55:44;;;;;;;7.00;4.53;;;;;;;17.41;50.02;95483.91;5022972;28;20334;-79
2022/09/14 06:58:10;;;;;;;11.18;4.97;;;;;;;17.44;49.54;95486.19;5025081;28;20025;-79
2022/09/14 07:00:35;;;;;;;10.68;4.75;;;;;;;17.55;49.55;95485.44;5022998;28;20036;-79
2022/09/14 07:03:00;;;;;;;8.27;4.63;;;;;;;17.61;49.48;95485.63;5023336;28;20705;-79
2022/09/14 07:05:26;;;;;;;12.38;5.72;;;;;;;17.77;49.14;95478.81;5006373;28;20064;-79
2022/09/14 07:07:52;;;;;;;8.80;5.20;;;;;;;17.79;49.00;95477.56;5025132;28;20408;-79
2022/09/14 07:10:17;;;;;;;11.70;5.80;;;;;;;17.79;48.60;95466.72;5022745;28;20053;-79
2022/09/14 07:12:43;;;;;;;14.77;4.85;;;;;;;17.82;48.70;95473.56;5023106;28;20558;-80
2022/09/14 07:15:09;;;;;;;11.00;4.57;;;;;;;17.67;48.93;95476.59;5024605;28;20428;-80
2022/09/14 07:17:35;;;;;;;10.30;5.55;;;;;;;17.85;48.55;95467.69;5023003;28;20057;-80
2022/09/14 07:20:05;;;;;;;12.27;4.53;;;;;;;18.03;49.00;95466.06;5025438;28;20037;-80
2022/09/14 07:22:34;;;;;;;14.40;5.03;;;;;;;18.18;48.21;95473.06;5027795;28;20033;-79
2022/09/14 07:24:59;;;;;;;14.65;5.13;;;;;;;18.28;48.12;95468.75;5026815;28;20026;-80
2022/09/14 07:27:25;;;;;;;15.10;4.75;;;;;;;18.32;48.03;95474.59;5026490;28;20564;-80
2022/09/14 07:29:50;;;;;;;14.52;4.75;;;;;;;18.40;47.68;95454.44;5026679;28;20463;-81
2022/09/14 07:32:16;;;;;;;10.77;4.68;;;;;;;18.48;47.03;95450.59;5009896;28;20030;-80
2022/09/14 07:34:41;;;;;;;17.38;4.30;;;;;;;18.65;46.77;95459.78;5026096;28;20021;-79
2022/09/14 07:37:06;;;;;;;11.50;4.13;;;;;;;18.79;46.62;95451.47;5026357;28;20029;-80
2022/09/14 07:39:32;;;;;;;12.63;4.72;;;;;;;18.59;47.12;95463.41;5026352;28;20026;-80
2022/09/14 07:41:57;;;;;;;7.88;4.30;;;;;;;18.76;46.49;95462.81;5026489;28;20040;-81
2022/09/14 07:44:23;;;;;;;10.35;4.57;;;;;;;18.71;46.62;95457.22;5026519;28;20025;-80
2022/09/14 07:46:48;;;;;;;11.68;4.43;;;;;;;18.59;46.79;95462.56;5028011;28;20022;-80
2022/09/14 07:49:14;;;;;;;11.88;4.70;;;;;;;18.49;47.11;95453.06;5009758;28;20029;-80
2022/09/14 07:51:40;;;;;;;12.45;4.35;;;;;;;18.33;47.57;95459.94;4993650;28;20029;-80
2022/09/14 07:54:06;;;;;;;8.98;4.57;;;;;;;18.31;47.76;95464.78;5009853;28;20470;-79
2022/09/14 07:56:31;;;;;;;6.70;4.32;;;;;;;18.43;46.88;95456.69;5025992;28;20103;-80
2022/09/14 07:58:57;;;;;;;11.50;4.63;;;;;;;18.28;47.62;95467.97;5009772;28;20030;-79
2022/09/14 08:01:23;;;;;;;7.15;4.82;;;;;;;18.56;46.93;95461.16;5025735;28;20032;-80
2022/09/14 08:03:48;;;;;;;13.50;4.90;;;;;;;18.30;47.52;95460.41;5025954;28;20026;-80
2022/09/14 08:06:16;;;;;;;11.20;4.50;;;;;;;18.43;47.85;95462.13;5025505;28;20038;-81
2022/09/14 08:08:43;;;;;;;12.30;4.55;;;;;;;18.53;47.85;95456.19;5026217;28;20072;-81
2022/09/14 08:11:10;;;;;;;12.95;4.78;;;;;;;18.98;47.52;95455.00;5025477;28;20025;-81
2022/09/14 08:13:48;;;;;;;20.20;4.63;;;;;;;19.36;46.12;95450.28;5025810;28;20097;-81
2022/09/14 08:16:13;;;;;;;12.20;4.85;;;;;;;19.44;45.99;95445.59;5010649;28;20037;-79
2022/09/14 08:18:39;;;;;;;15.75;5.00;;;;;;;19.64;46.19;95451.53;5025270;28;20112;-81
2022/09/14 08:21:10;;;;;;;12.88;5.07;;;;;;;19.58;46.39;95451.66;5025424;28;20053;-79
2022/09/14 08:23:36;;;;;;;18.63;5.72;;;;;;;19.65;46.00;95449.66;5025248;28;20037;-80
2022/09/14 08:26:06;;;;;;;15.38;4.88;;;;;;;19.73;45.72;95454.72;5025632;28;20014;-80
2022/09/14 08:28:32;;;;;;;10.95;5.00;;;;;;;19.95;45.73;95454.19;5025292;28;20029;-79
2022/09/14 08:31:02;;;;;;;14.77;4.68;;;;;;;19.70;45.66;95460.66;5008505;28;20056;-80
2022/09/14 08:33:29;;;;;;;17.05;6.07;;;;;;;19.16;46.66;95456.03;5025367;28;20021;-79
2022/09/14 08:35:55;;;;;;;9.93;4.50;;;;;;;19.02;47.24;95449.94;5008679;28;20087;-79
2022/09/14 08:38:20;;;;;;;16.50;4.80;;;;;;;19.09;47.64;95441.66;5025423;28;20029;-80
2022/09/14 08:40:46;;;;;;;7.78;4.18;;;;;;;19.38;46.43;95441.91;5024984;28;20017;-79
2022/09/14 08:43:12;;;;;;;15.48;4.68;;;;;;;19.70;46.12;95438.06;5008472;28;20411;-79
2022/09/14 08:45:41;;;;;;;10.52;4.63;;;;;;;19.89;46.57;95436.88;5025028;28;20072;-79
2022/09/14 08:48:21;;;;;;;11.68;4.10;;;;;;;20.18;45.50;95425.31;5008655;28;20033;-79
2022/09/14 08:50:46;;;;;;;10.80;4.18;;;;;;;20.14;45.04;95424.13;5010021;28;20026;-80
2022/09/14 08:53:12;;;;;;;9.73;4.35;;;;;;;20.41;44.70;95429.06;5007984;28;20401;-80
2022/09/14 08:55:40;;;;;;;11.98;4.13;;;;;;;20.38;44.44;95427.66;5025110;28;20025;-80
2022/09/14 08:58:08;;;;;;;20.27;4.40;;;;;;;20.21;45.08;95427.56;5025766;28;20034;-81
2022/09/14 09:00:54;;;;;;;11.13;3.85;;;;;;;20.47;44.33;95417.19;5026201;28;20026;-80
2022/09/14 09:03:23;;;;;;;8.10;4.05;;;;;;;20.65;44.66;95423.53;5024208;28;20029;-81
2022/09/14 09:06:07;;;;;;;13.98;4.30;;;;;;;20.97;44.54;95430.47;5024399;28;20025;-80
2022/09/14 09:08:41;;;;;;;6.28;3.88;;;;;;;20.95;43.56;95421.72;5026442;28;20021;-80
2022/09/14 09:11:12;;;;;;;11.07;4.72;;;;;;;20.64;45.48;95419.19;5024336;28;20033;-80
2022/09/14 09:13:39;;;;;;;9.05;4.30;;;;;;;20.47;45.29;95410.94;5008942;28;20029;-79
2022/09/14 09:16:06;;;;;;;13.20;4.90;;;;;;;21.01;45.25;95412.56;4992109;28;20022;-80
2022/09/14 09:18:52;;;;;;;9.63;3.85;;;;;;;21.06;43.99;95409.09;5007947;28;20030;-79
2022/09/14 09:21:19;;;;;;;6.07;3.97;;;;;;;21.34;43.97;95407.41;5029418;28;20500;-80
2022/09/14 09:23:45;;;;;;;16.27;3.83;;;;;;;21.48;44.24;95406.03;5024118;28;20029;-81
2022/09/14 09:26:29;;;;;;;7.85;3.58;;;;;;;21.51;43.49;95398.41;5024877;28;20024;-81
2022/09/14 09:29:00;;;;;;;8.50;3.60;;;;;;;21.78;43.09;95405.97;5007722;28;20087;-81
2022/09/14 09:31:43;;;;;;;5.82;3.30;;;;;;;21.91;42.85;95394.69;5024118;28;20091;-81
2022/09/14 09:34:13;;;;;;;9.07;3.58;;;;;;;22.07;42.47;95395.75;5009931;28;20033;-80
2022/09/14 09:36:39;;;;;;;10.90;3.05;;;;;;;22.07;42.31;95386.75;5007970;28;20022;-80
2022/09/14 09:39:05;;;;;;;9.38;3.72;;;;;;;22.09;41.52;95385.41;4991963;28;20064;-80
2022/09/14 09:41:51;;;;;;;7.45;3.63;;;;;;;21.89;43.17;95398.75;5025277;28;20033;-80
2022/09/14 09:44:17;;;;;;;5.47;2.88;;;;;;;22.40;43.09;95386.88;5020598;28;20136;-80
2022/09/14 09:46:50;;;;;;;5.70;2.83;;;;;;;22.47;41.47;95382.88;5023315;28;20034;-79
2022/09/14 09:49:19;;;;;;;5.25;2.88;;;;;;;22.37;40.65;95388.22;4991597;28;20464;-81
2022/09/14 09:51:45;;;;;;;6.72;2.78;;;;;;;22.05;41.11;95386.16;5008148;28;20029;-80
2022/09/14 09:54:14;;;;;;;8.00;2.80;;;;;;;22.33;40.45;95379.69;5007607;28;20022;-80
2022/09/14 09:56:59;;;;;;;6.13;3.00;;;;;;;22.31;40.90;95368.19;5025474;28;20030;-81
2022/09/14 09:59:34;;;;;;;5.90;2.70;;;;;;;22.41;40.51;95367.50;5023517;28;20037;-81
2022/09/14 10:02:30;;;;;;;5.60;2.63;;;;;;;22.46;39.85;95366.72;5025031;28;20460;-81
2022/09/14 10:05:13;;;;;;;4.47;2.03;;;;;;;22.33;39.92;95355.13;5024185;28;20457;-80
2022/09/14 10:07:55;;;;;;;3.35;2.38;;;;;;;22.04;39.99;95341.63;5023423;28;20034;-80
2022/09/14 10:10:38;;;;;;;4.85;2.40;;;;;;;22.38;39.77;95348.03;5023692;28;20025;-80
2022/09/14 10:13:03;;;;;;;;;;;;;;;22.59;37.75;95344.53;5009710;28;20033;-79
2022/09/14 10:15:33;;;;;;;5.55;2.05;;;;;;;22.25;37.59;95344.63;5024749;28;19963;-80
2022/09/14 10:18:10;;;;;;;3.22;2.15;;;;;;;22.35;38.13;95339.31;5007637;28;20573;-80
2022/09/14 10:20:40;;;;;;;6.03;1.80;;;;;;;22.76;37.47;95335.41;5024823;28;20060;-79
2022/09/14 10:23:18;;;;;;;2.80;1.70;;;;;;;22.66;36.28;95338.88;5007254;28;20029;-80
2022/09/14 10:25:44;;;;;;;3.03;1.50;;;;;;;22.53;35.66;95340.06;5023450;28;20021;-81
2022/09/14 10:28:25;;;;;;;4.35;1.58;;;;;;;22.58;34.88;95334.66;5023442;28;20495;-80
2022/09/14 10:31:23;;;;;;;2.28;1.10;;;;;;;22.65;33.31;95333.66;5024895;28;20527;-79
2022/09/14 10:33:55;;;;;;;4.45;1.30;;;;;;;22.81;35.28;95329.97;5009444;28;20053;-81
2022/09/14 10:36:36;;;;;;;3.67;1.75;;;;;;;23.00;34.46;95329.63;5023366;28;20026;-80
2022/09/14 10:39:15;;;;;;;9.95;1.85;;;;;;;22.93;33.01;95329.84;5023357;28;20033;-81
2022/09/14 10:42:04;;;;;;;1.80;1.00;;;;;;;23.03;32.29;95320.06;5022888;28;20057;-80
2022/09/14 10:44:36;;;;;;;2.63;1.58;;;;;;;23.16;34.33;95322.38;5020627;28;20104;-80
2022/09/14 10:47:38;;;;;;;3.22;1.20;;;;;;;23.15;32.31;95326.19;5024654;28;20026;-80
2022/09/14 10:50:12;;;;;;;2.00;0.98;;;;;;;23.28;32.89;95330.41;5024334;28;20064;-80
2022/09/14 10:52:54;;;;;;;3.25;1.17;;;;;;;23.40;32.67;95329.44;5007069;28;20124;-81
2022/09/14 10:55:43;;;;;;;2.30;1.30;;;;;;;23.40;32.16;95316.59;5025184;28;20091;-82
2022/09/14 10:58:23;;;;;;;4.75;1.42;;;;;;;23.53;33.49;95315.31;5026874;28;20786;-80
2022/09/14 11:01:09;;;;;;;3.28;1.27;;;;;;;23.67;31.64;95318.41;5027186;28;20017;-80
2022/09/14 11:03:43;;;;;;;4.70;1.30;;;;;;;23.52;31.77;95321.84;5028000;28;20056;-80
2022/09/14 11:06:27;;;;;;;3.22;1.15;;;;;;;23.36;31.46;95317.34;5028357;28;20026;-80
2022/09/14 11:08:58;;;;;;;1.83;1.15;;;;;;;23.45;31.66;95318.53;5027748;28;20410;-80
2022/09/14 11:11:53;;;;;;;2.50;1.20;;;;;;;23.38;32.24;95317.88;5010766;28;20507;-79
2022/09/14 11:14:31;;;;;;;2.13;1.20;;;;;;;23.68;31.09;95311.03;5027253;28;20030;-79
2022/09/14 11:17:02;;;;;;;3.38;1.38;;;;;;;23.77;30.73;95314.91;5028009;28;20032;-79
2022/09/14 11:19:54;;;;;;;2.42;1.30;;;;;;;23.70;31.49;95323.34;5027916;28;20080;-80
2022/09/14 11:22:20;;;;;;;2.30;1.38;;;;;;;23.76;31.33;95316.03;5028176;28;20029;-81
2022/09/14 11:24:56;;;;;;;3.40;1.52;;;;;;;23.91;32.02;95317.16;5027608;28;20029;-81
2022/09/14 11:27:23;;;;;;;2.90;1.75;;;;;;;24.08;31.16;95314.28;5028396;28;20100;-80
2022/09/14 11:29:52;;;;;;;2.15;1.20;;;;;;;24.17;30.98;95301.72;5009633;28;20087;-81
2022/09/14 11:32:30;;;;;;;3.80;1.63;;;;;;;24.47;32.37;95307.63;5026478;28;20056;-81
2022/09/14 11:35:02;;;;;;;4.90;1.52;;;;;;;24.47;31.22;95293.91;5010681;28;20040;-80
2022/09/14 11:37:57;;;;;;;2.63;1.50;;;;;;;24.64;29.96;95281.88;5027609;28;20072;-79
2022/09/14 11:40:33;;;;;;;3.45;1.27;;;;;;;24.51;30.40;95286.78;5013163;28;20132;-81
2022/09/14 11:43:12;;;;;;;2.63;1.35;;;;;;;24.56;30.09;95275.84;5010350;28;20029;-83
2022/09/14 11:45:49;;;;;;;2.97;1.40;;;;;;;24.48;31.40;95281.84;5025795;28;20033;-80